Mound Valley, Kansas
Current Conditions -  °F | °C
As of 9:52 AM on Wednesday 22 Oct 2014 (Local Time) from KPPF Reporting Station
Clear Clear  
Wind Chill: 65°   Ceiling: Unl
Heat Index: 65°   Visibility: 10mi
Dew Point: 57°   Wind: 5mph
Humidity: 75%   Direction: 140°SE
Pressure: 30.2"   Gusts: NA
Location:  37.21°N, 95.4°W
Report Text: KPPF 221452Z AUTO 14004KT 10SM CLR 18/14 A3020 RMK AO2 SLP220 T01830139 51014
Loading
Personal Weather Stations






























Interactive Weather Map
Tropical Storm Tracking
New forecast layout! Learn more

10-Day Weather Forecast

Advertisements
Track Severe Weather on mobile